createdAt,value
2017-11-03T00:01:30.345Z,10.52
2017-11-03T00:03:57.898Z,10.54
2017-11-03T00:06:25.366Z,10.54
2017-11-03T00:08:53.227Z,10.49
2017-11-03T00:11:20.767Z,10.47
2017-11-03T00:13:49.071Z,10.47
2017-11-03T00:16:18.481Z,10.49
2017-11-03T00:18:45.975Z,10.47
2017-11-03T00:21:13.514Z,10.47
2017-11-03T00:23:41.450Z,10.43
2017-11-03T00:26:09.009Z,10.46
2017-11-03T00:28:36.839Z,10.49
2017-11-03T00:31:04.406Z,10.51
2017-11-03T00:33:31.916Z,10.52
2017-11-03T00:35:59.414Z,10.51
2017-11-03T00:38:26.991Z,10.53
2017-11-03T00:40:54.536Z,10.50
2017-11-03T00:43:23.077Z,10.50
2017-11-03T00:45:50.563Z,10.50
2017-11-03T00:48:18.051Z,10.49
2017-11-03T00:50:45.563Z,10.50
2017-11-03T00:53:13.094Z,10.50
2017-11-03T00:55:40.680Z,10.53
2017-11-03T00:58:08.268Z,10.52
2017-11-03T01:00:35.729Z,10.51
2017-11-03T01:03:03.208Z,10.49
2017-11-03T01:05:30.730Z,10.45
2017-11-03T01:07:58.203Z,10.42
2017-11-03T01:10:25.747Z,10.41
2017-11-03T01:12:54.477Z,10.41
2017-11-03T01:15:22.859Z,10.49
2017-11-03T01:17:50.458Z,10.53
2017-11-03T01:20:18.010Z,10.52
2017-11-03T01:22:45.565Z,10.54
2017-11-03T01:25:13.124Z,10.48
2017-11-03T01:27:40.688Z,10.49
2017-11-03T01:30:08.312Z,10.49
2017-11-03T01:32:36.029Z,10.51
2017-11-03T01:35:03.654Z,10.54
2017-11-03T01:37:31.197Z,10.54
2017-11-03T01:39:58.793Z,10.55
2017-11-03T01:42:26.339Z,10.55
2017-11-03T01:44:54.121Z,10.54
2017-11-03T01:47:21.742Z,10.54
2017-11-03T01:49:49.350Z,10.54
2017-11-03T01:52:17.573Z,10.54
2017-11-03T01:54:46.014Z,10.54
2017-11-03T01:57:13.571Z,10.53
2017-11-03T01:59:41.131Z,10.56
2017-11-03T02:02:08.682Z,10.53
2017-11-03T02:04:37.100Z,10.57
2017-11-03T02:07:04.696Z,10.55
2017-11-03T02:09:33.080Z,10.51
2017-11-03T02:12:01.437Z,10.49
2017-11-03T02:14:28.947Z,10.51
2017-11-03T02:16:57.464Z,10.51
2017-11-03T02:19:25.473Z,10.52
2017-11-03T02:21:53.081Z,10.56
2017-11-03T02:24:20.648Z,10.56
2017-11-03T02:26:48.212Z,10.53
2017-11-03T02:29:15.746Z,10.50
2017-11-03T02:31:44.021Z,10.45
2017-11-03T02:34:11.680Z,10.47
2017-11-03T02:36:39.201Z,10.49
2017-11-03T02:39:06.685Z,10.51
2017-11-03T02:41:34.162Z,10.52
2017-11-03T02:44:02.042Z,10.53
2017-11-03T02:46:29.563Z,10.50
2017-11-03T02:48:57.124Z,10.49
2017-11-03T02:51:24.665Z,10.51
2017-11-03T02:53:52.191Z,10.51
2017-11-03T02:56:19.717Z,10.54
2017-11-03T02:58:47.222Z,10.52
2017-11-03T03:01:14.749Z,10.50
2017-11-03T03:03:42.244Z,10.49
2017-11-03T03:06:09.719Z,10.48
2017-11-03T03:08:37.230Z,10.49
2017-11-03T03:11:04.720Z,10.52
2017-11-03T03:13:32.207Z,10.52
2017-11-03T03:15:59.673Z,10.55
2017-11-03T03:18:27.533Z,10.56
2017-11-03T03:20:56.043Z,10.56
2017-11-03T03:23:23.537Z,10.54
2017-11-03T03:25:51.015Z,10.54
2017-11-03T03:28:18.573Z,10.55
2017-11-03T03:30:46.034Z,10.55
2017-11-03T03:33:13.504Z,10.56
2017-11-03T03:35:41.013Z,10.58
2017-11-03T03:38:08.486Z,10.55
2017-11-03T03:40:36.024Z,10.54
2017-11-03T03:43:03.487Z,10.57
2017-11-03T03:45:31.001Z,10.61
2017-11-03T03:47:58.457Z,10.57
2017-11-03T03:50:26.002Z,10.56
2017-11-03T03:52:53.488Z,10.53
2017-11-03T03:55:20.958Z,10.49
2017-11-03T03:57:48.458Z,10.48
2017-11-03T04:00:15.928Z,10.45
2017-11-03T04:02:43.455Z,10.43
2017-11-03T04:05:10.964Z,10.47
2017-11-03T04:07:38.528Z,10.48
2017-11-03T04:10:06.088Z,10.49
2017-11-03T04:12:33.573Z,10.49
2017-11-03T04:15:01.679Z,10.52
2017-11-03T04:17:29.164Z,10.52
2017-11-03T04:19:59.391Z,10.49
2017-11-03T04:22:27.669Z,10.47
2017-11-03T04:24:55.165Z,10.47
2017-11-03T04:27:22.660Z,10.47
2017-11-03T04:29:50.158Z,10.49
2017-11-03T04:32:17.703Z,10.48
2017-11-03T04:34:45.256Z,10.52
2017-11-03T04:37:12.834Z,10.61
2017-11-03T04:39:40.352Z,10.62
2017-11-03T04:42:07.867Z,10.59
2017-11-03T04:44:35.495Z,10.56
2017-11-03T04:47:03.017Z,10.54
2017-11-03T04:49:30.476Z,10.51
2017-11-03T04:51:58.005Z,10.49
2017-11-03T04:54:25.469Z,10.49
2017-11-03T04:56:52.980Z,10.51
2017-11-03T04:59:20.440Z,10.48
2017-11-03T05:01:47.936Z,10.47
2017-11-03T05:04:15.388Z,10.46
2017-11-03T05:06:42.845Z,10.47
2017-11-03T05:09:10.370Z,10.48
2017-11-03T05:11:37.880Z,10.46
2017-11-03T05:14:05.430Z,10.44
2017-11-03T05:16:32.919Z,10.38
2017-11-03T05:19:00.454Z,10.36
2017-11-03T05:21:27.958Z,10.35
2017-11-03T05:23:57.870Z,10.33
2017-11-03T05:26:27.990Z,10.30
2017-11-03T05:28:56.609Z,10.30
2017-11-03T05:31:24.083Z,10.30
2017-11-03T05:33:51.643Z,10.30
2017-11-03T05:36:19.201Z,10.31
2017-11-03T05:38:46.745Z,10.31
2017-11-03T05:41:14.338Z,10.28
2017-11-03T05:43:41.871Z,10.30
2017-11-03T05:46:09.399Z,10.30
2017-11-03T05:48:36.999Z,10.29
2017-11-03T05:51:04.668Z,10.29
2017-11-03T05:53:32.214Z,10.29
2017-11-03T05:55:59.806Z,10.31
2017-11-03T05:58:27.351Z,10.33
2017-11-03T06:00:54.868Z,10.35
2017-11-03T06:03:22.468Z,10.37
2017-11-03T06:05:50.009Z,10.37
2017-11-03T06:08:17.582Z,10.35
2017-11-03T06:10:45.070Z,10.35
2017-11-03T06:13:12.882Z,10.36
2017-11-03T06:15:40.361Z,10.38
2017-11-03T06:18:07.874Z,10.42
2017-11-03T06:20:35.449Z,10.41
2017-11-03T06:23:03.034Z,10.40
2017-11-03T06:25:30.543Z,10.37
2017-11-03T06:27:58.048Z,10.33
2017-11-03T06:30:25.517Z,10.30
2017-11-03T06:32:53.006Z,10.29
2017-11-03T06:35:20.508Z,10.30
2017-11-03T06:37:48.000Z,10.31
2017-11-03T06:40:15.533Z,10.31
2017-11-03T06:42:43.133Z,10.30
2017-11-03T06:45:10.639Z,10.31
2017-11-03T06:47:38.143Z,10.32
2017-11-03T06:50:05.718Z,10.29
2017-11-03T06:52:33.230Z,10.27
2017-11-03T06:55:00.704Z,10.26
2017-11-03T06:57:28.218Z,10.21
2017-11-03T06:59:55.731Z,10.17
2017-11-03T07:02:23.211Z,10.12
2017-11-03T07:04:50.753Z,10.11
2017-11-03T07:07:18.373Z,10.09
2017-11-03T07:09:46.058Z,10.10
2017-11-03T07:12:13.703Z,10.11
2017-11-03T07:14:41.198Z,10.07
2017-11-03T07:17:08.913Z,10.02
2017-11-03T07:19:36.408Z,10.00
2017-11-03T07:22:03.940Z,10.03
2017-11-03T07:24:31.417Z,10.06
2017-11-03T07:26:58.932Z,10.07
2017-11-03T07:29:26.492Z,10.11
2017-11-03T07:31:53.975Z,10.17
2017-11-03T07:34:21.483Z,10.20
2017-11-03T07:36:49.154Z,10.21
2017-11-03T07:39:16.700Z,10.22
2017-11-03T07:41:45.158Z,10.26
2017-11-03T07:44:12.657Z,10.34
2017-11-03T07:46:40.272Z,10.43
2017-11-03T07:49:07.870Z,10.46
2017-11-03T07:51:35.530Z,10.53
2017-11-03T07:54:03.213Z,10.64
2017-11-03T07:59:12.533Z,10.81
2017-11-03T08:01:40.098Z,10.81
2017-11-03T08:04:07.645Z,10.84
2017-11-03T08:06:35.203Z,10.92
2017-11-03T08:09:02.767Z,11.01
2017-11-03T08:11:30.304Z,11.05
2017-11-03T08:13:57.818Z,11.16
2017-11-03T08:16:25.308Z,11.20
2017-11-03T08:18:53.104Z,11.25
2017-11-03T08:21:20.647Z,11.27
2017-11-03T08:23:48.208Z,11.29
2017-11-03T08:26:15.763Z,11.29
2017-11-03T08:28:43.387Z,11.25
2017-11-03T08:31:10.886Z,11.26
2017-11-03T08:33:38.463Z,11.29
2017-11-03T08:36:05.932Z,11.34
2017-11-03T08:38:33.528Z,11.38
2017-11-03T08:41:01.021Z,11.42
2017-11-03T08:43:28.568Z,11.46
2017-11-03T08:45:57.015Z,11.49
2017-11-03T08:48:25.491Z,11.56
2017-11-03T08:50:53.064Z,11.58
2017-11-03T08:53:20.713Z,11.65
2017-11-03T08:55:48.360Z,11.68
2017-11-03T08:58:15.914Z,11.74
2017-11-03T09:00:43.582Z,11.78
2017-11-03T09:03:11.182Z,11.82
2017-11-03T09:05:38.815Z,11.93
2017-11-03T09:08:06.594Z,12.00
2017-11-03T09:10:34.144Z,12.02
2017-11-03T09:13:01.649Z,12.08
2017-11-03T09:15:29.180Z,12.15
2017-11-03T09:17:56.740Z,12.21
2017-11-03T09:20:24.342Z,12.25
2017-11-03T09:22:51.954Z,12.25
2017-11-03T09:25:21.290Z,12.27
2017-11-03T09:27:49.001Z,12.32
2017-11-03T09:30:16.615Z,12.32
2017-11-03T09:32:44.106Z,12.36
2017-11-03T09:35:11.692Z,12.35
2017-11-03T09:37:39.170Z,12.35
2017-11-03T09:40:06.740Z,12.37
2017-11-03T09:42:34.203Z,12.44
2017-11-03T09:45:01.737Z,12.46
2017-11-03T09:47:29.297Z,12.48
2017-11-03T09:49:56.909Z,12.54
2017-11-03T09:52:24.571Z,12.60
2017-11-03T09:57:34.220Z,13.00
2017-11-03T10:00:07.852Z,13.15
2017-11-03T10:02:35.505Z,13.33
2017-11-03T10:05:03.298Z,13.50
2017-11-03T10:07:30.844Z,13.65
2017-11-03T10:09:58.383Z,13.78
2017-11-03T10:12:26.152Z,13.82
2017-11-03T10:14:54.358Z,13.89
2017-11-03T10:17:21.837Z,14.15
2017-11-03T10:19:50.236Z,14.54
2017-11-03T10:22:17.728Z,14.60
2017-11-03T10:24:45.333Z,14.87
2017-11-03T10:27:12.877Z,15.12
2017-11-03T10:29:40.556Z,15.44
2017-11-03T10:32:08.134Z,15.59
2017-11-03T10:34:35.621Z,15.95
2017-11-03T10:37:03.121Z,16.71
2017-11-03T10:39:30.609Z,16.42
2017-11-03T10:41:58.100Z,16.25
2017-11-03T10:44:25.704Z,16.43
2017-11-03T10:46:56.252Z,16.60
2017-11-03T10:49:26.484Z,17.15
2017-11-03T10:51:54.139Z,18.24
2017-11-03T10:54:21.607Z,19.00
2017-11-03T10:56:49.206Z,19.19
2017-11-03T10:59:16.703Z,19.05
2017-11-03T11:01:44.221Z,18.45
2017-11-03T11:04:14.502Z,17.59
2017-11-03T11:06:42.455Z,17.05
2017-11-03T11:09:15.742Z,17.00
2017-11-03T11:11:43.273Z,17.14
2017-11-03T11:14:10.745Z,17.01
2017-11-03T11:16:38.250Z,17.32
2017-11-03T11:19:05.742Z,17.52
2017-11-03T11:21:33.265Z,17.45
2017-11-03T11:24:00.747Z,17.28
2017-11-03T11:26:28.333Z,17.01
2017-11-03T11:28:56.129Z,16.75
2017-11-03T11:31:23.652Z,16.58
2017-11-03T11:33:51.115Z,16.63
2017-11-03T11:36:18.598Z,16.46
2017-11-03T11:38:46.124Z,16.00
2017-11-03T11:41:13.631Z,16.01
2017-11-03T11:43:41.194Z,15.89
2017-11-03T11:46:08.835Z,15.79
2017-11-03T11:48:37.276Z,15.89
2017-11-03T11:51:04.820Z,15.91
2017-11-03T11:53:32.337Z,15.97
2017-11-03T11:56:01.456Z,15.89
2017-11-03T11:58:29.039Z,15.77
2017-11-03T12:01:02.289Z,15.61
2017-11-03T12:03:29.887Z,15.58
2017-11-03T12:05:57.381Z,15.43
2017-11-03T12:08:27.449Z,15.35
2017-11-03T12:10:54.943Z,15.27
2017-11-03T12:13:23.623Z,15.44
2017-11-03T12:15:51.847Z,15.76
2017-11-03T12:18:19.360Z,16.01
2017-11-03T12:20:46.857Z,16.21
2017-11-03T12:23:17.770Z,16.43
2017-11-03T12:25:58.980Z,16.68
2017-11-03T12:28:44.955Z,17.06
2017-11-03T12:31:13.087Z,17.76
2017-11-03T12:33:45.640Z,18.55
2017-11-03T12:36:13.306Z,19.02
2017-11-03T12:38:41.008Z,19.16
2017-11-03T12:41:08.571Z,19.70
2017-11-03T12:43:36.109Z,20.01
2017-11-03T12:46:03.660Z,20.14
2017-11-03T12:48:31.218Z,19.80
2017-11-03T12:50:58.949Z,19.82
2017-11-03T12:53:26.557Z,20.27
2017-11-03T12:55:54.051Z,20.62
2017-11-03T12:58:27.632Z,20.51
2017-11-03T13:00:56.011Z,21.03
2017-11-03T13:03:33.401Z,21.09
2017-11-03T13:06:01.618Z,21.07
2017-11-03T13:08:29.094Z,21.04
2017-11-03T13:10:58.629Z,21.40
2017-11-03T13:13:26.192Z,21.66
2017-11-03T13:15:54.800Z,21.63
2017-11-03T13:18:22.361Z,21.21
2017-11-03T13:20:50.001Z,21.27
2017-11-03T13:23:17.552Z,21.40
2017-11-03T13:25:46.032Z,21.00
2017-11-03T13:28:13.650Z,20.52
2017-11-03T13:30:55.261Z,20.57
2017-11-03T13:33:25.699Z,20.73
2017-11-03T13:36:06.428Z,20.45
2017-11-03T13:38:35.229Z,19.74
2017-11-03T13:41:02.832Z,19.16
2017-11-03T13:43:30.308Z,18.66
2017-11-03T13:45:57.795Z,18.20
2017-11-03T13:48:25.306Z,17.70
2017-11-03T13:50:54.292Z,17.13
2017-11-03T13:53:21.758Z,16.69
2017-11-03T13:55:57.521Z,16.24
2017-11-03T13:58:32.958Z,15.99
2017-11-03T14:01:01.681Z,15.79
2017-11-03T14:03:29.376Z,15.63
2017-11-03T14:05:56.878Z,15.46
2017-11-03T14:08:24.373Z,15.33
2017-11-03T14:10:51.885Z,15.17
2017-11-03T14:13:19.359Z,15.11
2017-11-03T14:15:47.013Z,15.02
2017-11-03T14:18:14.585Z,14.93
2017-11-03T14:20:42.218Z,14.87
2017-11-03T14:23:09.725Z,14.84
2017-11-03T14:25:37.216Z,14.76
2017-11-03T14:28:06.884Z,14.69
2017-11-03T14:30:42.409Z,14.70
2017-11-03T14:33:10.257Z,14.68
2017-11-03T14:35:51.086Z,14.65
2017-11-03T14:38:19.241Z,14.58
2017-11-03T14:40:46.803Z,14.53
2017-11-03T14:43:21.124Z,14.39
2017-11-03T14:45:49.368Z,14.39
2017-11-03T14:48:16.842Z,14.35
2017-11-03T14:50:44.374Z,14.28
2017-11-03T14:53:11.841Z,14.24
2017-11-03T14:55:41.329Z,14.19
2017-11-03T14:58:08.969Z,14.16
2017-11-03T15:00:36.526Z,14.14
2017-11-03T15:03:04.019Z,14.10
2017-11-03T15:05:31.556Z,14.06
2017-11-03T15:07:59.049Z,14.03
2017-11-03T15:10:27.036Z,13.98
2017-11-03T15:12:54.541Z,13.96
2017-11-03T15:15:22.052Z,13.91
2017-11-03T15:17:49.574Z,13.92
2017-11-03T15:20:17.057Z,13.88
2017-11-03T15:22:44.546Z,13.84
2017-11-03T15:25:12.067Z,13.83
2017-11-03T15:27:39.550Z,13.77
2017-11-03T15:30:07.232Z,13.73
2017-11-03T15:32:35.199Z,13.70
2017-11-03T15:35:02.693Z,13.66
2017-11-03T15:37:30.192Z,13.62
2017-11-03T15:39:57.705Z,13.56
2017-11-03T15:42:25.270Z,13.51
2017-11-03T15:44:52.776Z,13.47
2017-11-03T15:47:20.752Z,13.42
2017-11-03T15:49:48.280Z,13.36
2017-11-03T15:52:15.800Z,13.36
2017-11-03T15:54:43.309Z,13.30
2017-11-03T15:57:10.844Z,13.27
2017-11-03T15:59:38.335Z,13.22
2017-11-03T16:02:05.834Z,13.22
2017-11-03T16:04:34.298Z,13.23
2017-11-03T16:07:01.790Z,13.21
2017-11-03T16:09:30.427Z,13.19
2017-11-03T16:11:57.938Z,13.13
2017-11-03T16:14:25.803Z,13.11
2017-11-03T16:16:53.390Z,13.07
2017-11-03T16:19:20.908Z,13.04
2017-11-03T16:21:48.529Z,13.00
2017-11-03T16:24:16.154Z,12.99
2017-11-03T16:26:43.794Z,12.96
2017-11-03T16:35:57.065Z,12.97
2017-11-03T16:38:25.753Z,13.01
2017-11-03T16:40:53.873Z,12.98
2017-11-03T16:43:21.461Z,12.97
2017-11-03T16:45:48.990Z,12.95
2017-11-03T16:48:16.524Z,12.91
2017-11-03T16:50:44.235Z,12.90
2017-11-03T16:53:11.952Z,12.94
2017-11-03T16:55:39.873Z,12.95
2017-11-03T16:58:07.427Z,12.93
2017-11-03T17:00:36.777Z,12.93
2017-11-03T17:03:04.565Z,12.89
2017-11-03T17:05:32.264Z,12.84
2017-11-03T17:08:00.627Z,12.77
2017-11-03T17:10:28.182Z,12.72
2017-11-03T17:12:55.724Z,12.71
2017-11-03T17:15:23.204Z,12.68
2017-11-03T17:17:50.830Z,12.65
2017-11-03T17:20:18.417Z,12.57
2017-11-03T17:22:46.665Z,12.53
2017-11-03T17:25:14.354Z,12.53
2017-11-03T17:27:41.878Z,12.52
2017-11-03T17:30:09.598Z,12.53
2017-11-03T17:32:37.260Z,12.55
2017-11-03T17:35:04.795Z,12.52
2017-11-03T17:37:32.307Z,12.49
2017-11-03T17:39:59.834Z,12.46
2017-11-03T17:42:27.700Z,12.39
2017-11-03T17:44:55.244Z,12.37
2017-11-03T17:47:22.799Z,12.32
2017-11-03T17:49:50.323Z,12.21
2017-11-03T17:52:17.831Z,12.20
2017-11-03T17:54:45.332Z,12.16
2017-11-03T17:57:12.836Z,12.11
2017-11-03T17:59:40.332Z,12.10
2017-11-03T18:02:07.809Z,12.09
2017-11-03T18:04:36.355Z,12.10
2017-11-03T18:07:05.164Z,12.06
2017-11-03T18:12:15.205Z,12.13
2017-11-03T18:14:44.563Z,12.08
2017-11-03T18:17:12.186Z,12.10
2017-11-03T18:19:39.762Z,12.09
2017-11-03T18:22:07.432Z,12.10
2017-11-03T18:24:34.914Z,12.09
2017-11-03T18:27:03.339Z,12.09
2017-11-03T18:29:30.801Z,12.09
2017-11-03T18:31:58.313Z,12.07
2017-11-03T18:34:25.812Z,11.98
2017-11-03T18:36:53.321Z,11.96
2017-11-03T18:39:20.873Z,11.91
2017-11-03T18:41:48.428Z,11.87
2017-11-03T18:44:15.956Z,11.83
2017-11-03T18:46:43.560Z,11.83
2017-11-03T18:49:11.056Z,11.80
2017-11-03T18:51:41.175Z,11.78
2017-11-03T18:54:08.676Z,11.73
2017-11-03T18:56:36.140Z,11.69
2017-11-03T18:59:03.656Z,11.68
2017-11-03T19:01:32.440Z,11.67
2017-11-03T19:03:59.922Z,11.68
2017-11-03T19:06:27.405Z,11.69
2017-11-03T19:08:54.913Z,11.66
2017-11-03T19:11:22.449Z,11.65
2017-11-03T19:13:50.005Z,11.60
2017-11-03T19:16:17.504Z,11.60
2017-11-03T19:18:45.006Z,11.58
2017-11-03T19:21:12.552Z,11.59
2017-11-03T19:23:40.851Z,11.50
2017-11-03T19:26:08.416Z,11.49
2017-11-03T19:28:35.918Z,11.48
2017-11-03T19:31:03.456Z,11.40
2017-11-03T19:33:30.961Z,11.39
2017-11-03T19:35:58.471Z,11.37
2017-11-03T19:38:25.965Z,11.33
2017-11-03T19:40:53.464Z,11.21
2017-11-03T19:43:20.940Z,11.19
2017-11-03T19:45:48.488Z,11.20
2017-11-03T19:48:15.967Z,11.17
2017-11-03T19:50:43.482Z,11.08
2017-11-03T19:53:11.212Z,11.03
2017-11-03T19:55:38.739Z,11.04
2017-11-03T19:58:06.194Z,11.04
2017-11-03T20:00:33.680Z,11.06
2017-11-03T20:03:01.163Z,10.98
2017-11-03T20:05:28.639Z,10.88
2017-11-03T20:07:56.171Z,10.82
2017-11-03T20:10:23.678Z,10.79
2017-11-03T20:12:51.183Z,10.79
2017-11-03T20:15:18.689Z,10.81
2017-11-03T20:17:46.188Z,10.76
2017-11-03T20:20:13.645Z,10.74
2017-11-03T20:22:41.139Z,10.71
2017-11-03T20:25:08.623Z,10.78
2017-11-03T20:27:36.394Z,10.75
2017-11-03T20:30:04.618Z,10.78
2017-11-03T20:32:32.717Z,10.78
2017-11-03T20:35:00.650Z,10.76
2017-11-03T20:37:28.654Z,10.72
2017-11-03T20:39:56.382Z,10.72
2017-11-03T20:42:26.708Z,10.69
2017-11-03T20:44:55.179Z,10.59
2017-11-03T20:47:26.236Z,10.56
2017-11-03T20:49:53.757Z,10.55
2017-11-03T20:52:21.240Z,10.54
2017-11-03T20:54:48.759Z,10.47
2017-11-03T20:57:16.345Z,10.43
2017-11-03T20:59:44.580Z,10.43
2017-11-03T21:02:15.457Z,10.44
2017-11-03T21:04:44.735Z,10.46
2017-11-03T21:07:12.221Z,10.42
2017-11-03T21:09:39.707Z,10.41
2017-11-03T21:12:07.215Z,10.36
2017-11-03T21:14:34.714Z,10.38
2017-11-03T21:17:02.224Z,10.39
2017-11-03T21:19:29.780Z,10.41
2017-11-03T21:21:57.260Z,10.32
2017-11-03T21:24:24.734Z,10.30
2017-11-03T21:26:52.226Z,10.33
2017-11-03T21:29:19.778Z,10.31
2017-11-03T21:31:47.600Z,10.26
2017-11-03T21:34:15.124Z,10.24
2017-11-03T21:36:42.662Z,10.18
2017-11-03T21:39:10.149Z,10.16
2017-11-03T21:41:37.641Z,10.18
2017-11-03T21:44:05.091Z,10.17
2017-11-03T21:46:32.651Z,10.17
2017-11-03T21:49:05.243Z,10.19
2017-11-03T21:51:32.768Z,10.13
2017-11-03T21:54:00.286Z,10.16
2017-11-03T21:56:27.852Z,10.18
2017-11-03T21:58:55.378Z,10.24
2017-11-03T22:01:22.890Z,10.30
2017-11-03T22:03:50.381Z,10.31
2017-11-03T22:06:17.835Z,10.33
2017-11-03T22:08:45.327Z,10.31
2017-11-03T22:11:12.809Z,10.26
2017-11-03T22:13:40.324Z,10.26
2017-11-03T22:16:08.730Z,10.26
2017-11-03T22:18:36.232Z,10.21
2017-11-03T22:21:03.767Z,10.18
2017-11-03T22:23:31.307Z,10.15
2017-11-03T22:25:59.547Z,10.09
2017-11-03T22:28:27.100Z,10.02
2017-11-03T22:30:54.608Z,10.02
2017-11-03T22:33:22.145Z,9.94
2017-11-03T22:35:49.627Z,9.96
2017-11-03T22:38:17.136Z,9.93
2017-11-03T22:40:44.627Z,9.92
2017-11-03T22:43:12.173Z,9.85
2017-11-03T22:45:40.589Z,9.82
2017-11-03T22:48:11.164Z,9.77
2017-11-03T22:50:41.385Z,9.76
2017-11-03T22:53:09.597Z,9.75
2017-11-03T22:55:37.288Z,9.74
2017-11-03T22:58:09.271Z,9.75
2017-11-03T23:00:36.951Z,9.72
2017-11-03T23:03:05.313Z,9.74
2017-11-03T23:05:32.866Z,9.72
2017-11-03T23:08:00.425Z,9.65
2017-11-03T23:10:31.342Z,9.66
2017-11-03T23:13:02.008Z,9.66
2017-11-03T23:15:32.353Z,9.67
2017-11-03T23:18:02.254Z,9.65
2017-11-03T23:20:29.818Z,9.59
2017-11-03T23:22:57.280Z,9.62
2017-11-03T23:25:24.906Z,9.62
2017-11-03T23:27:52.423Z,9.58
2017-11-03T23:30:19.896Z,9.50
2017-11-03T23:32:49.469Z,9.43
2017-11-03T23:35:16.948Z,9.41
2017-11-03T23:37:44.455Z,9.38
2017-11-03T23:40:14.448Z,9.37
2017-11-03T23:42:41.934Z,9.32
2017-11-03T23:45:12.392Z,9.29
2017-11-03T23:47:40.016Z,9.30
2017-11-03T23:50:08.881Z,9.33
2017-11-03T23:52:38.072Z,9.34
2017-11-03T23:55:06.752Z,9.30
2017-11-03T23:57:36.052Z,9.27
